Time;durP1;ratioP1;P1;durP2;ratioP2;P2;SDS_P1;SDS_P2;PMS_P1;PMS_P2;Temp;Humidity;BMP_temperature;BMP_pressure;BME280_temperature;BME280_humidity;BME280_pressure;Samples;Min_cycle;Max_cycle;Signal;HPM_P1;HPM_P2
2022/09/10 00:01:42;;;;;;;;;3.00;0.67;;;;;17.67;64.70;100873.56;5099376;27;46221;-68
2022/09/10 00:04:11;;;;;;;;;1.67;1.67;;;;;18.22;64.77;100956.47;5099308;27;45180;-69
2022/09/10 00:06:37;;;;;;;;;2.00;2.00;;;;;18.22;64.79;100969.91;5081204;27;45398;-67
2022/09/10 00:09:04;;;;;;;;;2.00;0.00;;;;;18.19;64.66;100964.88;5080994;27;45301;-68
2022/09/10 00:11:30;;;;;;;;;1.33;1.33;;;;;18.20;64.83;100964.69;5099242;27;46218;-68
2022/09/10 00:13:57;;;;;;;;;2.67;1.33;;;;;18.21;65.07;100978.97;5079367;27;45215;-69
2022/09/10 00:16:23;;;;;;;;;5.33;3.67;;;;;18.18;65.05;100974.81;5079860;27;45454;-68
2022/09/10 00:18:49;;;;;;;;;3.67;2.00;;;;;18.19;65.41;100981.84;5079013;27;45204;-68
2022/09/10 00:21:18;;;;;;;;;2.00;1.67;;;;;18.20;65.16;100974.63;5077018;28;47406;-67
2022/09/10 00:23:44;;;;;;;;;3.00;1.67;;;;;18.20;65.20;100972.75;5078462;27;45445;-68
2022/09/10 00:26:20;;;;;;;;;2.33;2.00;;;;;18.23;65.30;100966.19;5078859;28;45420;-68
2022/09/10 00:28:46;;;;;;;;;4.67;1.00;;;;;18.13;65.13;100965.63;5078825;28;45435;-68
2022/09/10 00:31:12;;;;;;;;;3.00;3.00;;;;;17.93;65.66;100936.63;5077849;28;45837;-69
2022/09/10 00:33:37;;;;;;;;;1.00;1.00;;;;;18.21;65.16;100968.22;5077590;27;45217;-68
2022/09/10 00:36:13;;;;;;;;;2.00;2.00;;;;;18.20;65.88;100964.69;5078842;27;45304;-71
2022/09/10 00:38:38;;;;;;;;;2.00;2.00;;;;;18.13;65.45;100947.63;5078637;28;45545;-68
2022/09/10 00:41:05;;;;;;;;;1.75;1.75;;;;;18.02;65.32;100920.38;5078151;28;45869;-69
2022/09/10 00:43:56;;;;;;;;;3.67;3.00;;;;;18.15;65.19;100948.28;5078213;28;45272;-69
2022/09/10 00:46:36;;;;;;;;;2.00;2.00;;;;;18.18;65.31;100952.44;5078375;28;45455;-67
2022/09/10 00:49:11;;;;;;;;;4.00;2.00;;;;;17.90;65.55;100906.59;5078147;28;45376;-68
2022/09/10 00:51:36;;;;;;;;;2.33;2.33;;;;;17.91;65.37;100917.16;5078006;28;45355;-67
2022/09/10 00:54:04;;;;;;;;;1.33;1.00;;;;;18.17;65.69;100962.38;5059689;28;45374;-68
2022/09/10 00:56:31;;;;;;;;;4.00;4.00;;;;;18.18;65.31;100955.13;5077404;27;45492;-68
2022/09/10 00:58:57;;;;;;;;;4.00;2.00;;;;;18.19;65.04;100951.41;5098849;27;45398;-69
2022/09/10 01:01:22;;;;;;;;;1.00;1.00;;;;;18.03;65.16;100919.38;5098112;27;46722;-68
2022/09/10 01:03:48;;;;;;;;;3.33;2.00;;;;;18.21;65.11;100950.22;5098166;27;45208;-67
2022/09/10 01:06:14;;;;;;;;;0.00;0.00;;;;;18.12;65.32;100934.38;5098606;27;45229;-69
2022/09/10 01:08:40;;;;;;;;;5.00;1.67;;;;;18.07;65.14;100931.41;5098638;27;45481;-69
2022/09/10 01:11:25;;;;;;;;;3.00;3.00;;;;;18.15;65.30;100945.59;5079690;27;47688;-67
2022/09/10 01:14:08;;;;;;;;;2.67;0.67;;;;;18.19;65.28;100954.13;5095986;27;46082;-68
2022/09/10 01:17:08;;;;;;;;;1.00;0.67;;;;;18.17;65.08;100945.41;5059433;28;45408;-68
2022/09/10 01:19:46;;;;;;;;;1.00;1.00;;;;;18.15;65.48;100947.44;5059669;28;45637;-69
2022/09/10 01:22:43;;;;;;;;;2.67;1.67;;;;;18.08;65.64;100946.53;5077608;27;46350;-67
2022/09/10 01:25:37;;;;;;;;;1.00;1.00;;;;;18.07;65.66;100956.47;5059183;28;45411;-69
2022/09/10 01:28:07;;;;;;;;;2.33;2.00;;;;;18.06;65.66;100952.13;5077850;28;45249;-67
2022/09/10 01:30:44;;;;;;;;;4.00;2.00;;;;;17.89;65.82;100938.03;5077605;28;45189;-68
2022/09/10 01:33:40;;;;;;;;;2.00;2.00;;;;;18.02;65.99;100952.66;5078435;27;47172;-69
2022/09/10 01:36:12;;;;;;;;;4.00;1.33;;;;;17.56;65.97;100877.56;5067585;28;46407;-68
2022/09/10 01:38:40;;;;;;;;;1.00;1.00;;;;;17.53;66.07;100875.25;5077909;28;45496;-67
2022/09/10 01:41:07;;;;;;;;;2.00;2.00;;;;;17.99;65.81;100961.94;5060554;28;45529;-68
2022/09/10 01:43:33;;;;;;;;;1.00;1.00;;;;;17.98;65.86;100967.50;5078381;27;46204;-67
2022/09/10 01:46:28;;;;;;;;;3.33;1.00;;;;;17.99;65.87;100961.94;5059897;28;45392;-69
2022/09/10 01:49:12;;;;;;;;;5.00;1.33;;;;;17.97;66.14;100963.16;5077601;28;45193;-67
2022/09/10 01:51:55;;;;;;;;;3.00;3.00;;;;;17.99;65.80;100958.41;5058999;28;45513;-68
2022/09/10 01:54:45;;;;;;;;;4.00;2.67;;;;;17.83;66.31;100941.47;5077925;27;46917;-69
2022/09/10 01:57:22;;;;;;;;;2.67;1.33;;;;;17.95;66.06;100968.72;5076507;27;45619;-68
2022/09/10 02:00:01;;;;;;;;;2.67;2.00;;;;;17.93;65.90;100979.66;5077165;28;45335;-68
2022/09/10 02:02:35;;;;;;;;;1.00;1.00;;;;;17.83;65.97;100964.84;5077452;28;45279;-68
2022/09/10 02:05:03;;;;;;;;;3.00;2.00;;;;;17.87;66.07;100952.69;5058694;28;47734;-68
2022/09/10 02:07:30;;;;;;;;;4.00;4.00;;;;;17.93;66.10;100963.53;5077013;28;45313;-68
2022/09/10 02:09:58;;;;;;;;;2.00;2.00;;;;;17.85;65.92;100952.88;5077112;28;45328;-68
2022/09/10 02:12:23;;;;;;;;;5.67;5.67;;;;;17.91;66.32;100960.19;5078371;27;45540;-68
2022/09/10 02:14:52;;;;;;;;;3.33;2.00;;;;;17.88;66.00;100952.50;5077013;28;45583;-69
2022/09/10 02:17:19;;;;;;;;;2.67;2.00;;;;;17.96;65.61;100969.56;5077172;28;45948;-68
2022/09/10 02:19:46;;;;;;;;;2.00;1.00;;;;;17.94;65.92;100954.44;5076902;27;45224;-68
2022/09/10 02:22:14;;;;;;;;;1.00;1.00;;;;;17.76;66.30;100953.16;5077141;28;45327;-68
2022/09/10 02:24:40;;;;;;;;;4.33;1.00;;;;;17.90;66.17;100957.69;5076461;28;46366;-68
2022/09/10 02:27:05;;;;;;;;;3.00;2.33;;;;;17.50;65.98;100891.75;5058461;28;45425;-68
2022/09/10 02:29:31;;;;;;;;;4.00;2.33;;;;;17.69;66.60;100931.53;5076922;27;45225;-69
2022/09/10 02:31:56;;;;;;;;;1.67;1.67;;;;;17.80;66.20;100959.81;5088652;27;45182;-68
2022/09/10 02:34:21;;;;;;;;;3.00;3.00;;;;;17.74;66.78;100968.63;5077721;27;71956;-69
2022/09/10 02:36:48;;;;;;;;;3.67;2.00;;;;;16.89;66.40;100827.41;5097189;27;45212;-68
2022/09/10 02:39:14;;;;;;;;;4.67;1.67;;;;;17.47;66.50;100917.16;5097354;27;45246;-68
2022/09/10 02:41:40;;;;;;;;;2.00;1.00;;;;;17.66;66.56;100937.28;5078774;27;45546;-68
2022/09/10 02:44:06;;;;;;;;;3.00;3.00;;;;;17.23;66.39;100864.50;5078399;27;47778;-68
2022/09/10 02:46:31;;;;;;;;;5.00;2.33;;;;;17.89;66.48;100956.03;5096997;27;45624;-68
2022/09/10 02:48:57;;;;;;;;;3.00;1.33;;;;;17.46;66.13;100879.69;5078675;27;45564;-68
2022/09/10 02:51:23;;;;;;;;;5.00;3.33;;;;;17.81;66.22;100940.78;5084368;27;45570;-68
2022/09/10 02:53:49;;;;;;;;;4.00;1.67;;;;;17.93;65.87;100960.84;5058197;28;46514;-67
2022/09/10 02:56:15;;;;;;;;;1.67;1.67;;;;;17.78;65.98;100941.19;5078595;28;45371;-67
2022/09/10 02:58:40;;;;;;;;;1.33;1.00;;;;;17.96;65.76;100964.16;5079735;27;45340;-68
2022/09/10 03:01:17;;;;;;;;;2.33;1.33;;;;;18.05;66.07;100976.53;5082283;27;45498;-68
2022/09/10 03:03:48;;;;;;;;;4.67;2.67;;;;;17.96;65.47;100954.25;5081705;27;47832;-68
2022/09/10 03:06:13;;;;;;;;;3.00;1.00;;;;;18.03;65.70;100976.72;5100320;27;45329;-68
2022/09/10 03:08:38;;;;;;;;;3.67;3.00;;;;;18.01;65.89;100962.59;5099712;27;61803;-68
2022/09/10 03:11:05;;;;;;;;;3.00;3.00;;;;;17.55;65.42;100897.38;5083245;27;45461;-68
2022/09/10 03:13:31;;;;;;;;;2.00;2.00;;;;;18.09;65.53;100985.88;5079536;27;45665;-69
2022/09/10 03:15:57;;;;;;;;;2.00;2.00;;;;;18.13;65.38;100988.00;5061357;27;45316;-68
2022/09/10 03:18:23;;;;;;;;;2.00;2.00;;;;;18.11;65.36;100975.75;5079746;28;45150;-67
2022/09/10 03:20:49;;;;;;;;;2.33;1.00;;;;;18.17;65.35;100977.69;5079844;28;45146;-69
2022/09/10 03:23:15;;;;;;;;;2.67;2.00;;;;;18.06;65.53;100948.59;5079473;27;46819;-68
2022/09/10 03:25:40;;;;;;;;;3.00;2.00;;;;;18.19;64.84;100971.09;5061292;28;45401;-69
2022/09/10 03:28:05;;;;;;;;;2.67;2.00;;;;;18.20;65.16;100977.31;5083258;27;45236;-68
2022/09/10 03:30:31;;;;;;;;;4.33;3.33;;;;;18.09;65.12;100957.13;5083757;27;45346;-67
2022/09/10 03:32:57;;;;;;;;;2.00;2.00;;;;;18.20;64.92;100971.94;5100863;27;45589;-67
2022/09/10 03:35:22;;;;;;;;;2.33;1.33;;;;;18.11;65.16;100962.31;5081699;27;46093;-67
2022/09/10 03:37:48;;;;;;;;;3.00;3.00;;;;;18.03;65.11;100955.19;5099847;27;45382;-67
2022/09/10 03:40:14;;;;;;;;;2.00;2.00;;;;;18.14;64.99;100978.06;5100188;27;45257;-67
2022/09/10 03:42:40;;;;;;;;;3.33;2.00;;;;;18.12;64.94;100974.75;5099727;27;45596;-68
2022/09/10 03:45:06;;;;;;;;;2.75;1.75;;;;;17.99;65.25;100953.88;5099383;27;45458;-67
2022/09/10 03:47:31;;;;;;;;;2.75;1.00;;;;;18.17;64.98;100969.63;5080656;27;45216;-67
2022/09/10 03:49:58;;;;;;;;;2.67;1.33;;;;;18.20;65.14;100972.75;5099517;27;45130;-68
2022/09/10 03:52:25;;;;;;;;;2.33;2.33;;;;;18.08;65.26;100960.00;5098553;27;46648;-67
2022/09/10 03:54:50;;;;;;;;;4.67;3.67;;;;;18.14;64.75;100953.84;5098612;27;45319;-68
2022/09/10 03:57:16;;;;;;;;;1.00;1.00;;;;;18.12;64.94;100955.91;5099273;27;45488;-68
2022/09/10 03:59:41;;;;;;;;;4.67;3.67;;;;;18.21;64.76;100978.97;5098972;27;45450;-68
2022/09/10 04:02:10;;;;;;;;;4.00;3.00;;;;;18.12;64.43;100953.22;5098674;27;46118;-68
2022/09/10 04:04:38;;;;;;;;;2.67;2.33;;;;;18.29;64.75;100978.06;5098549;27;45353;-68
2022/09/10 04:07:03;;;;;;;;;1.00;1.00;;;;;17.78;64.79;100910.75;5071756;28;45474;-68
2022/09/10 04:09:31;;;;;;;;;2.33;2.00;;;;;18.10;64.78;100950.72;5060375;28;45233;-67
2022/09/10 04:11:57;;;;;;;;;2.67;2.67;;;;;18.25;64.72;100980.28;5076856;28;48961;-68
2022/09/10 04:14:23;;;;;;;;;1.75;1.75;;;;;18.26;64.85;100981.97;5078417;27;45510;-67
2022/09/10 04:16:48;;;;;;;;;2.00;2.00;;;;;18.18;64.59;100964.03;5078318;27;45323;-67
2022/09/10 04:19:14;;;;;;;;;5.00;2.00;;;;;17.70;64.81;100876.75;5078210;27;45300;-68
2022/09/10 04:21:39;;;;;;;;;2.33;2.00;;;;;18.32;64.24;100980.38;5077974;28;45844;-68
2022/09/10 04:24:08;;;;;;;;;2.50;1.25;;;;;18.33;64.43;100977.47;5078204;28;45395;-68
2022/09/10 04:26:33;;;;;;;;;3.33;2.00;;;;;18.31;64.62;100973.31;5078111;27;45410;-68
2022/09/10 04:28:59;;;;;;;;;2.33;0.67;;;;;18.24;64.69;100974.06;5078090;28;45543;-68
2022/09/10 04:31:24;;;;;;;;;2.00;2.00;;;;;18.08;64.84;100954.63;5077907;27;45818;-68
2022/09/10 04:33:49;;;;;;;;;4.00;2.33;;;;;18.11;64.81;100963.13;5077882;28;45318;-68
2022/09/10 04:36:16;;;;;;;;;1.00;1.00;;;;;18.16;64.80;100973.34;5078165;27;45501;-68
2022/09/10 04:38:42;;;;;;;;;1.33;1.33;;;;;17.97;64.86;100922.78;5078184;27;45497;-69
2022/09/10 04:41:09;;;;;;;;;3.00;2.33;;;;;17.57;64.83;100873.84;5077785;28;45810;-68
2022/09/10 04:43:35;;;;;;;;;2.67;2.00;;;;;18.05;64.88;100963.06;5077585;27;45540;-68
2022/09/10 04:46:01;;;;;;;;;2.33;2.00;;;;;18.20;64.87;100988.06;5090207;27;45299;-68
2022/09/10 04:48:26;;;;;;;;;2.33;2.00;;;;;18.21;65.16;100981.66;5098567;27;45285;-68
2022/09/10 04:50:52;;;;;;;;;1.00;1.00;;;;;18.10;64.70;100964.16;5098359;27;47562;-68
2022/09/10 04:53:18;;;;;;;;;1.00;1.00;;;;;17.34;64.69;100841.69;5098064;27;45434;-68
2022/09/10 04:55:45;;;;;;;;;2.33;1.67;;;;;17.64;64.63;100890.91;5098240;27;45338;-68
2022/09/10 04:58:12;;;;;;;;;2.00;2.00;;;;;18.07;65.13;100977.16;5098305;27;45467;-68
2022/09/10 05:00:38;;;;;;;;;4.00;4.00;;;;;18.10;64.96;100972.25;5097994;27;46587;-68
2022/09/10 05:03:04;;;;;;;;;1.00;1.00;;;;;18.16;64.85;100986.78;5098014;27;45521;-68
2022/09/10 05:05:30;;;;;;;;;3.00;3.00;;;;;18.20;64.90;100994.28;5083289;27;45525;-68
2022/09/10 05:07:55;;;;;;;;;4.33;3.33;;;;;18.20;64.95;101009.59;5077638;28;45364;-69
2022/09/10 05:10:22;;;;;;;;;4.00;3.00;;;;;18.22;64.46;101002.22;5077491;28;45385;-68
2022/09/10 05:12:47;;;;;;;;;4.00;2.00;;;;;17.71;64.97;100921.44;5059001;28;46652;-69
2022/09/10 05:15:13;;;;;;;;;3.00;2.00;;;;;18.20;65.03;100993.47;5077366;27;45212;-68
2022/09/10 05:17:38;;;;;;;;;4.67;3.00;;;;;18.28;64.61;101014.91;5078744;28;45284;-67
2022/09/10 05:20:06;;;;;;;;;2.33;1.33;;;;;18.29;64.78;101013.88;5078061;27;45830;-68
2022/09/10 05:22:33;;;;;;;;;2.00;2.00;;;;;18.30;64.57;101020.09;5077500;28;45489;-68
2022/09/10 05:24:58;;;;;;;;;4.33;2.00;;;;;18.19;64.65;101002.56;5077686;27;45328;-70
2022/09/10 05:27:24;;;;;;;;;1.00;1.00;;;;;18.26;64.73;101013.44;5077445;27;45417;-67
2022/09/10 05:29:49;;;;;;;;;2.00;2.00;;;;;18.19;64.71;100999.88;5077136;28;45544;-67
2022/09/10 05:32:14;;;;;;;;;2.67;2.67;;;;;18.24;64.74;101017.13;5077257;28;45261;-68
2022/09/10 05:34:40;;;;;;;;;1.67;1.67;;;;;18.09;64.95;101007.41;5077501;27;45226;-68
2022/09/10 05:37:07;;;;;;;;;3.00;3.00;;;;;18.22;64.88;101029.13;5077560;28;45313;-68
2022/09/10 05:39:33;;;;;;;;;3.33;2.67;;;;;18.23;64.82;101025.41;5076880;27;46523;-68
2022/09/10 05:41:59;;;;;;;;;7.00;7.00;;;;;18.18;64.83;101017.03;5077041;28;45218;-67
2022/09/10 05:44:25;;;;;;;;;3.33;2.67;;;;;18.28;64.79;101022.97;5077389;27;46666;-69
2022/09/10 05:46:50;;;;;;;;;4.00;4.00;;;;;17.98;64.53;100984.47;5097273;27;45303;-68
2022/09/10 05:49:16;;;;;;;;;2.33;1.33;;;;;18.24;64.98;101038.66;5097007;27;45734;-68
2022/09/10 05:51:41;;;;;;;;;2.33;1.67;;;;;18.24;64.77;101041.38;5096858;27;45563;-69
2022/09/10 05:54:07;;;;;;;;;1.00;1.00;;;;;18.26;64.58;101038.47;5097469;27;45417;-68
2022/09/10 05:56:33;;;;;;;;;2.00;2.00;;;;;18.21;64.63;101038.19;5097512;27;45373;-69
2022/09/10 05:58:59;;;;;;;;;2.00;2.00;;;;;18.28;64.73;101049.88;5097448;27;46848;-68
2022/09/10 06:01:24;;;;;;;;;3.00;3.00;;;;;18.25;64.62;101050.28;5097330;27;45308;-68
2022/09/10 06:03:50;;;;;;;;;3.00;3.00;;;;;18.26;64.74;101046.56;5097777;27;45436;-67
2022/09/10 06:06:16;;;;;;;;;4.00;3.00;;;;;17.78;64.59;100962.69;5097685;27;45434;-68
2022/09/10 06:08:41;;;;;;;;;3.33;1.67;;;;;18.38;64.31;101063.88;5097173;27;46270;-67
2022/09/10 06:11:08;;;;;;;;;2.00;1.00;;;;;18.29;64.24;101046.19;5096226;27;45449;-68
2022/09/10 06:13:34;;;;;;;;;2.00;2.00;;;;;18.26;64.48;101045.72;5078486;27;45263;-68
2022/09/10 06:16:00;;;;;;;;;2.33;2.00;;;;;18.22;64.59;101046.09;5078936;27;45247;-68
2022/09/10 06:18:26;;;;;;;;;4.67;4.33;;;;;18.32;64.83;101067.34;5097060;27;46491;-69
2022/09/10 06:21:06;;;;;;;;;3.00;3.00;;;;;18.36;64.59;101071.31;5096866;27;45391;-68
2022/09/10 06:23:32;;;;;;;;;6.00;3.67;;;;;18.31;64.67;101059.44;5097045;27;45406;-68
2022/09/10 06:26:04;;;;;;;;;2.00;2.00;;;;;18.44;64.78;101087.38;5097528;27;45303;-68
2022/09/10 06:28:31;;;;;;;;;2.00;2.00;;;;;18.45;64.80;101080.16;5096876;27;46485;-68
2022/09/10 06:30:57;;;;;;;;;4.00;3.00;;;;;18.44;64.39;101071.22;5100532;27;45462;-68
2022/09/10 06:33:22;;;;;;;;;9.00;9.00;;;;;18.41;64.30;101070.75;5100579;27;45387;-68
2022/09/10 06:35:59;;;;;;;;;1.33;1.00;;;;;18.42;64.52;101078.66;5100853;27;45510;-68
2022/09/10 06:38:28;;;;;;;;;4.33;3.00;;;;;18.41;64.73;101076.97;5100522;27;46424;-67
2022/09/10 06:40:56;;;;;;;;;3.00;1.33;;;;;18.12;64.51;101031.25;5100563;27;45508;-69
2022/09/10 06:43:24;;;;;;;;;3.00;2.00;;;;;18.49;64.06;101084.97;5096936;27;45273;-68
2022/09/10 06:45:53;;;;;;;;;2.67;2.67;;;;;18.42;64.43;101073.28;5094614;27;45236;-68
2022/09/10 06:48:20;;;;;;;;;3.00;2.00;;;;;18.65;64.30;101099.28;5100460;27;45653;-69
2022/09/10 06:50:57;;;;;;;;;1.67;1.67;;;;;18.82;63.84;101090.81;5082063;27;45361;-68
2022/09/10 06:53:26;;;;;;;;;2.00;1.67;;;;;19.01;62.96;101092.00;5100289;27;45340;-68
2022/09/10 06:55:52;;;;;;;;;1.00;1.00;;;;;19.11;62.50;101095.25;5085224;27;45420;-70
2022/09/10 06:58:19;;;;;;;;;4.00;1.00;;;;;19.22;62.39;101093.06;5079603;28;46239;-69
2022/09/10 07:00:46;;;;;;;;;2.33;2.33;;;;;19.31;62.33;101089.22;5079688;28;45346;-67
2022/09/10 07:03:14;;;;;;;;;3.00;3.00;;;;;19.37;61.90;101088.44;5080093;27;45285;-68
2022/09/10 07:05:40;;;;;;;;;3.33;3.33;;;;;19.32;61.70;101074.72;5084206;27;45600;-69
2022/09/10 07:08:05;;;;;;;;;2.67;2.00;;;;;19.19;61.16;101053.03;5088063;27;45216;-67
2022/09/10 07:10:31;;;;;;;;;2.00;1.00;;;;;18.93;61.56;101016.72;5079514;27;45253;-68
2022/09/10 07:12:57;;;;;;;;;4.33;2.00;;;;;19.34;61.71;101089.66;5079063;28;45445;-70
2022/09/10 07:15:22;;;;;;;;;25.00;24.33;;;;;19.52;61.58;101108.09;5069019;28;45396;-68
2022/09/10 07:17:47;;;;;;;;;4.33;3.33;;;;;19.49;61.38;101103.09;5079034;27;46006;-69
2022/09/10 07:20:13;;;;;;;;;2.33;2.00;;;;;19.42;61.44;101096.78;5061631;28;45456;-69
2022/09/10 07:22:39;;;;;;;;;4.00;1.00;;;;;19.44;61.18;101122.56;5079169;28;45446;-69
2022/09/10 07:25:06;;;;;;;;;3.00;3.00;;;;;19.39;61.31;101100.72;5079312;27;45416;-68
2022/09/10 07:27:32;;;;;;;;;2.00;2.00;;;;;19.47;61.26;101109.72;5079014;28;46462;-69
2022/09/10 07:29:57;;;;;;;;;3.00;3.00;;;;;19.39;61.48;101108.78;5093360;27;45227;-68
2022/09/10 07:32:23;;;;;;;;;3.67;2.33;;;;;19.42;61.35;101103.03;5080691;27;45833;-70
2022/09/10 07:34:48;;;;;;;;;5.00;2.67;;;;;19.35;61.09;101091.34;5095517;27;45246;-68
2022/09/10 07:37:16;;;;;;;;;3.00;1.33;;;;;19.41;61.32;101101.34;5079983;27;45642;-69
2022/09/10 07:39:42;;;;;;;;;3.33;2.00;;;;;19.47;61.13;101109.72;5078691;28;45318;-68
2022/09/10 07:42:08;;;;;;;;;3.33;3.33;;;;;19.47;61.53;101098.94;5077580;28;57342;-67
2022/09/10 07:44:33;;;;;;;;;2.67;2.67;;;;;19.51;61.11;101101.03;5079031;28;45422;-69
2022/09/10 07:47:00;;;;;;;;;3.00;3.00;;;;;19.59;60.92;101127.06;5060432;28;48204;-69
2022/09/10 07:49:26;;;;;;;;;5.00;3.00;;;;;19.53;61.47;101117.03;5078494;27;45278;-67
2022/09/10 07:51:53;;;;;;;;;4.67;2.00;;;;;19.55;60.97;101133.88;5078410;28;45294;-67
2022/09/10 07:54:18;;;;;;;;;1.00;1.00;;;;;19.43;61.52;101130.84;5079125;27;45219;-68
2022/09/10 07:56:44;;;;;;;;;5.67;5.67;;;;;19.37;61.49;101121.63;5078732;27;45463;-68
2022/09/10 07:59:10;;;;;;;;;4.00;4.00;;;;;19.52;61.80;101140.47;5078798;27;45302;-69
2022/09/10 08:01:36;;;;;;;;;2.33;1.33;;;;;19.54;61.43;101141.13;5083939;27;45465;-68
2022/09/10 08:04:02;;;;;;;;;2.67;1.67;;;;;19.55;61.44;101139.25;5099709;27;45499;-69
2022/09/10 08:06:27;;;;;;;;;5.00;3.00;;;;;19.45;61.43;101123.38;5080385;27;47925;-67
2022/09/10 08:08:53;;;;;;;;;4.25;2.75;;;;;19.53;61.39;101136.72;5090975;27;45470;-69
2022/09/10 08:11:20;;;;;;;;;3.67;3.33;;;;;19.08;61.36;101055.22;5089383;27;45353;-68
2022/09/10 08:13:47;;;;;;;;;3.00;3.00;;;;;19.65;61.84;101156.81;5098862;27;45259;-70
2022/09/10 08:16:18;;;;;;;;;4.00;2.00;;;;;19.60;62.04;101140.34;5079664;27;49236;-70
2022/09/10 08:18:45;;;;;;;;;4.00;3.75;;;;;19.69;62.56;101147.28;5098890;27;45468;-68
2022/09/10 08:21:11;;;;;;;;;3.67;1.00;;;;;19.74;62.26;101152.94;5080439;27;45268;-69
2022/09/10 08:23:38;;;;;;;;;2.67;2.00;;;;;19.39;62.11;101086.38;5087143;27;54747;-69
2022/09/10 08:26:06;;;;;;;;;3.00;3.00;;;;;19.73;61.34;101143.16;5091885;27;45799;-69
2022/09/10 08:28:33;;;;;;;;;1.67;1.67;;;;;19.78;61.53;101147.16;5098277;27;45403;-69
2022/09/10 08:31:06;;;;;;;;;2.00;2.00;;;;;19.61;60.73;101131.22;5080280;27;45569;-71
2022/09/10 08:33:32;;;;;;;;;3.00;3.00;;;;;19.73;61.08;101153.97;5080824;27;45520;-68
2022/09/10 08:35:58;;;;;;;;;3.00;3.00;;;;;19.70;60.95;101148.97;5098535;27;45714;-71
2022/09/10 08:38:30;;;;;;;;;5.33;5.00;;;;;19.74;61.11;101142.16;5081171;27;46173;-72
2022/09/10 08:40:58;;;;;;;;;2.67;2.00;;;;;19.72;61.28;101133.41;5098671;27;45213;-71
2022/09/10 08:43:34;;;;;;;;;3.00;3.00;;;;;19.82;61.22;101140.31;5080368;27;45336;-72
2022/09/10 08:46:04;;;;;;;;;3.00;2.00;;;;;19.83;60.50;101144.72;5098483;27;46450;-71
2022/09/10 08:48:34;;;;;;;;;2.67;2.67;;;;;19.97;60.63;101160.81;5098485;27;45442;-71
2022/09/10 08:51:07;;;;;;;;;4.67;4.00;;;;;20.03;61.16;101159.22;5099542;27;45383;-70
2022/09/10 08:53:48;;;;;;;;;2.67;2.33;;;;;20.12;60.52;101167.97;5105037;27;45403;-71
2022/09/10 08:56:20;;;;;;;;;2.33;2.00;;;;;20.11;60.55;101159.06;5077028;27;47091;-67
2022/09/10 08:59:01;;;;;;;;;10.33;6.33;;;;;20.29;60.43;101177.47;5089790;27;45426;-71
2022/09/10 09:01:49;;;;;;;;;5.67;4.00;;;;;20.33;60.06;101170.63;5060165;28;45346;-70
2022/09/10 09:04:25;;;;;;;;;3.00;3.00;;;;;20.46;59.73;101183.44;5079216;27;45464;-73
2022/09/10 09:06:55;;;;;;;;;2.00;2.00;;;;;20.42;59.55;101174.03;5064730;28;46686;-70
2022/09/10 09:09:21;;;;;;;;;5.00;5.00;;;;;20.50;58.94;101187.41;5074564;27;45627;-72
2022/09/10 09:11:57;;;;;;;;;2.00;2.00;;;;;20.28;59.54;101146.94;5087600;27;45475;-71
2022/09/10 09:14:34;;;;;;;;;2.00;2.00;;;;;20.51;59.94;101191.75;5063097;27;45420;-71
2022/09/10 09:17:21;;;;;;;;;5.00;5.00;;;;;20.48;60.30;101195.69;5037422;28;46366;-71
2022/09/10 09:20:17;;;;;;;;;2.33;2.33;;;;;20.11;60.73;101145.56;5009815;28;45958;-74
2022/09/10 09:23:01;;;;;;;;;2.67;2.67;;;;;20.43;61.43;101197.34;5017368;28;45606;-72
2022/09/10 09:25:32;;;;;;;;;2.67;2.67;;;;;20.38;61.50;101188.94;5040505;28;45380;-73
2022/09/10 09:27:57;;;;;;;;;5.67;4.33;;;;;20.22;60.73;101158.53;4997361;28;46299;-73
2022/09/10 09:30:48;;;;;;;;;2.33;2.33;;;;;20.51;60.92;101199.88;5007664;28;56891;-72
2022/09/10 09:33:18;;;;;;;;;3.33;2.33;;;;;20.53;61.16;101204.03;5015605;28;45420;-73
2022/09/10 09:35:59;;;;;;;;;1.00;0.67;;;;;20.57;60.91;101204.47;5017663;28;45281;-70
2022/09/10 09:38:47;;;;;;;;;4.00;4.00;;;;;20.64;61.04;101200.78;5015728;28;46315;-72
2022/09/10 09:41:22;;;;;;;;;2.00;2.00;;;;;20.67;60.50;101204.97;5016717;28;45368;-71
2022/09/10 09:43:54;;;;;;;;;3.33;3.33;;;;;20.64;60.61;101205.38;5015778;28;45463;-71
2022/09/10 09:46:21;;;;;;;;;1.33;1.33;;;;;20.45;60.33;101185.28;5017432;28;45527;-71
2022/09/10 09:48:52;;;;;;;;;2.75;2.00;;;;;20.36;60.87;101181.88;5016678;28;45803;-69
2022/09/10 09:51:20;;;;;;;;;6.67;4.00;;;;;20.62;61.08;101212.81;5014922;28;45538;-69
2022/09/10 09:53:49;;;;;;;;;3.00;3.00;;;;;20.60;60.91;101214.88;5016545;28;45439;-73
2022/09/10 09:56:24;;;;;;;;;4.00;2.00;;;;;20.46;61.16;101218.53;5032196;28;45601;-70
2022/09/10 09:58:51;;;;;;;;;2.00;2.00;;;;;20.38;61.61;101199.72;5031711;28;47374;-70
2022/09/10 10:01:20;;;;;;;;;2.67;1.67;;;;;20.34;62.11;101219.03;5016569;28;45523;-69
2022/09/10 10:03:57;;;;;;;;;2.00;1.67;;;;;20.40;62.65;101222.81;5016338;28;45168;-70
2022/09/10 10:06:25;;;;;;;;;3.33;3.33;;;;;20.34;62.47;101218.19;5010257;28;45513;-68
2022/09/10 10:08:58;;;;;;;;;4.00;3.00;;;;;20.38;62.94;101232.13;5049945;28;48180;-69
2022/09/10 10:11:41;;;;;;;;;2.33;2.33;;;;;20.38;62.72;101232.97;5036673;28;45341;-69
2022/09/10 10:14:35;;;;;;;;;7.00;5.67;;;;;20.22;62.30;101211.66;5032112;28;45439;-70
2022/09/10 10:17:01;;;;;;;;;3.00;2.00;;;;;20.34;62.43;101221.72;5016313;28;45439;-70
2022/09/10 10:19:35;;;;;;;;;3.00;2.00;;;;;20.33;62.20;101230.88;5016416;28;46205;-70
2022/09/10 10:22:30;;;;;;;;;2.00;2.00;;;;;20.30;62.82;101230.44;5014499;28;45476;-70
2022/09/10 10:25:00;;;;;;;;;4.00;4.00;;;;;20.00;62.89;101181.16;5015422;28;45321;-70
2022/09/10 10:27:40;;;;;;;;;3.67;3.67;;;;;20.26;63.06;101224.59;5015268;28;45495;-71
2022/09/10 10:30:11;;;;;;;;;2.00;2.00;;;;;20.33;62.52;101232.75;5016072;28;45562;-69
2022/09/10 10:32:39;;;;;;;;;2.75;2.75;;;;;20.32;62.61;101236.47;5031829;28;45349;-70
2022/09/10 10:35:18;;;;;;;;;3.00;3.00;;;;;20.10;62.27;101187.09;5016667;28;45245;-70
2022/09/10 10:38:03;;;;;;;;;2.33;2.33;;;;;20.13;62.29;101200.19;5031911;28;45352;-70
2022/09/10 10:40:32;;;;;;;;;5.00;2.75;;;;;20.33;62.01;101233.56;5019907;28;45747;-68
2022/09/10 10:43:07;;;;;;;;;5.00;4.00;;;;;20.34;62.40;101234.41;5035193;28;45577;-69
2022/09/10 10:45:53;;;;;;;;;1.00;1.00;;;;;20.33;63.21;101230.88;5016732;28;45314;-69
2022/09/10 10:48:53;;;;;;;;;4.33;3.00;;;;;20.27;64.14;101231.66;5032294;28;45455;-70
2022/09/10 10:51:37;;;;;;;;;4.33;3.00;;;;;20.29;64.65;101228.75;5016103;28;45691;-70
2022/09/10 10:54:26;;;;;;;;;3.00;3.00;;;;;20.26;65.24;101227.28;5016134;28;45333;-69
2022/09/10 10:57:10;;;;;;;;;5.67;4.67;;;;;20.29;65.36;101234.16;5016167;28;45404;-70
2022/09/10 11:00:02;;;;;;;;;5.00;5.00;;;;;20.34;65.27;101227.13;5015674;28;45395;-71
2022/09/10 11:03:03;;;;;;;;;6.00;4.33;;;;;20.35;65.25;101223.41;5020907;28;46501;-70
2022/09/10 11:05:37;;;;;;;;;5.00;4.67;;;;;20.39;65.43;101234.66;4996097;28;45421;-71
2022/09/10 11:08:29;;;;;;;;;3.00;3.00;;;;;20.41;65.62;101226.38;5018531;28;45529;-72
2022/09/10 11:11:16;;;;;;;;;2.00;2.00;;;;;20.47;65.52;101228.31;5007249;28;45384;-71
2022/09/10 11:13:50;;;;;;;;;3.00;3.00;;;;;20.49;65.26;101228.94;5033978;28;45747;-71
2022/09/10 11:16:22;;;;;;;;;3.00;3.00;;;;;20.39;65.42;101199.53;5020902;28;45604;-71
2022/09/10 11:19:14;;;;;;;;;6.00;5.00;;;;;20.45;65.16;101222.28;5032532;28;45423;-69
2022/09/10 11:21:48;;;;;;;;;4.33;3.00;;;;;20.51;65.37;101218.78;5053327;28;45516;-71
2022/09/10 11:24:21;;;;;;;;;3.00;3.00;;;;;20.48;64.58;101211.06;5022464;28;45679;-70
2022/09/10 11:26:58;;;;;;;;;3.00;3.00;;;;;20.50;64.78;101207.13;5022450;28;45364;-69
2022/09/10 11:29:44;;;;;;;;;8.33;6.33;;;;;20.61;64.84;101211.13;5021608;28;45486;-68
2022/09/10 11:32:21;;;;;;;;;7.67;5.00;;;;;20.69;64.72;101219.09;5025957;28;45210;-71
2022/09/10 11:35:20;;;;;;;;;7.00;5.00;;;;;20.80;64.61;101215.81;5033996;28;46608;-70
2022/09/10 11:38:04;;;;;;;;;3.67;1.00;;;;;20.92;64.43;101208.84;5016569;28;45357;-73
2022/09/10 11:40:45;;;;;;;;;12.00;7.00;;;;;20.95;64.47;101194.91;5033250;28;45459;-72